Time;durP1;ratioP1;P1;durP2;ratioP2;P2;SDS_P1;SDS_P2;PMS_P1;PMS_P2;Temp;Humidity;BMP_temperature;BMP_pressure;BME280_temperature;BME280_humidity;BME280_pressure;Samples;Min_cycle;Max_cycle;Signal;HPM_P1;HPM_P2
2021/06/07 00:01:32;;;;;;;1.55;1.20;;;15.20;67.00;;;;;;5029651;28;20092;-84
2021/06/07 00:03:58;;;;;;;1.70;1.40;;;15.20;67.00;;;;;;5031481;28;20033;-88
2021/06/07 00:06:23;;;;;;;2.80;1.50;;;15.20;67.10;;;;;;5030847;28;20068;-86
2021/06/07 00:08:49;;;;;;;2.15;1.20;;;15.20;67.20;;;;;;5030415;28;20037;-91
2021/06/07 00:11:16;;;;;;;3.28;1.50;;;15.20;67.20;;;;;;5031094;28;20034;-87
2021/06/07 00:13:43;;;;;;;2.25;1.48;;;15.20;67.30;;;;;;5029862;28;20514;-87
2021/06/07 00:16:10;;;;;;;2.17;1.50;;;15.10;67.30;;;;;;5028696;28;20022;-87
2021/06/07 00:18:36;;;;;;;1.98;1.60;;;15.10;67.40;;;;;;5030309;28;20052;-87
2021/06/07 00:21:16;;;;;;;1.40;1.30;;;15.00;67.50;;;;;;5030007;28;20033;-87
2021/06/07 00:23:43;;;;;;;1.75;1.45;;;15.00;67.50;;;;;;5029370;28;20077;-87
2021/06/07 00:26:09;;;;;;;2.05;1.60;;;15.00;67.60;;;;;;5033074;28;20083;-89
2021/06/07 00:28:35;;;;;;;1.55;1.40;;;14.90;67.70;;;;;;5023907;28;20550;-88
2021/06/07 00:31:02;;;;;;;1.83;1.52;;;14.90;67.80;;;;;;5019878;28;20361;-89
2021/06/07 00:33:28;;;;;;;2.08;1.58;;;14.90;67.90;;;;;;5023101;28;20472;-90
2021/06/07 00:35:53;;;;;;;1.40;1.30;;;14.80;67.80;;;;;;5018405;28;20062;-88
2021/06/07 00:38:19;;;;;;;3.35;1.80;;;14.80;67.90;;;;;;5027441;28;20064;-88
2021/06/07 00:40:45;;;;;;;1.90;1.30;;;14.80;68.00;;;;;;5025149;28;20030;-89
2021/06/07 00:43:11;;;;;;;3.80;1.65;;;14.80;68.00;;;;;;5015374;28;20028;-90
2021/06/07 00:45:37;;;;;;;1.40;1.30;;;14.70;68.00;;;;;;5023596;28;20025;-90
2021/06/07 00:48:04;;;;;;;1.92;1.48;;;14.70;68.00;;;;;;5017582;28;20037;-89
2021/06/07 00:50:48;;;;;;;1.90;1.60;;;14.70;68.10;;;;;;5031205;28;20092;-89
2021/06/07 00:53:17;;;;;;;1.75;1.30;;;14.60;68.20;;;;;;5028187;28;20017;-90
2021/06/07 00:55:48;;;;;;;1.73;1.50;;;14.60;68.20;;;;;;5030457;28;20031;-87
2021/06/07 00:58:15;;;;;;;2.42;1.50;;;14.60;68.30;;;;;;5015460;28;20067;-88
2021/06/07 01:00:41;;;;;;;2.97;1.70;;;14.50;68.40;;;;;;5026950;28;20049;-88
2021/06/07 01:03:09;;;;;;;1.60;1.30;;;14.50;68.50;;;;;;5023911;28;20106;-89
2021/06/07 01:05:35;;;;;;;1.88;1.40;;;14.50;68.50;;;;;;5014904;28;20034;-88
2021/06/07 01:08:00;;;;;;;1.45;1.15;;;14.50;68.50;;;;;;5013663;28;20014;-87
2021/06/07 01:10:26;;;;;;;2.60;1.63;;;14.40;68.50;;;;;;5015708;28;20033;-88
2021/06/07 01:12:52;;;;;;;2.35;1.40;;;14.40;68.50;;;;;;5027519;28;20132;-86
2021/06/07 01:15:19;;;;;;;1.40;1.30;;;14.40;68.50;;;;;;5015151;28;20338;-90
2021/06/07 01:17:45;;;;;;;2.40;1.52;;;14.40;69.10;;;;;;5021674;28;20037;-88
2021/06/07 01:20:14;;;;;;;2.58;1.60;;;14.40;68.50;;;;;;5018362;28;20109;-87
2021/06/07 01:22:41;;;;;;;2.05;1.20;;;14.30;68.50;;;;;;5017167;28;20087;-88
2021/06/07 01:25:18;;;;;;;1.60;1.50;;;14.30;68.60;;;;;;5010434;28;20069;-88
2021/06/07 01:27:44;;;;;;;2.45;1.50;;;14.30;68.60;;;;;;5011488;28;20026;-87
2021/06/07 01:30:14;;;;;;;2.85;1.50;;;14.30;68.60;;;;;;5014016;28;20053;-89
2021/06/07 01:32:40;;;;;;;1.77;1.40;;;14.30;68.60;;;;;;5025888;28;20036;-86
2021/06/07 01:35:09;;;;;;;2.22;1.60;;;14.30;68.60;;;;;;5029785;28;20033;-87
2021/06/07 01:37:35;;;;;;;2.25;1.50;;;14.20;68.70;;;;;;5022772;28;20038;-88
2021/06/07 01:40:02;;;;;;;2.95;1.63;;;14.20;68.70;;;;;;5014995;28;20068;-88
2021/06/07 01:42:27;;;;;;;2.53;1.40;;;14.20;68.80;;;;;;5015128;28;20021;-87
2021/06/07 01:44:53;;;;;;;1.70;1.30;;;14.10;68.70;;;;;;5020476;28;20787;-88
2021/06/07 01:47:18;;;;;;;1.42;1.30;;;14.10;68.80;;;;;;5025059;28;20550;-88
2021/06/07 01:49:44;;;;;;;1.92;1.40;;;14.10;68.80;;;;;;5017383;28;20060;-88
2021/06/07 01:52:10;;;;;;;2.22;1.50;;;14.10;68.80;;;;;;5018887;28;20033;-89
2021/06/07 01:54:37;;;;;;;2.10;1.30;;;14.00;68.80;;;;;;5023199;28;20033;-88
2021/06/07 01:57:03;;;;;;;1.48;1.33;;;14.00;68.90;;;;;;5026455;28;20435;-87
2021/06/07 01:59:29;;;;;;;1.65;1.40;;;14.00;68.90;;;;;;5029199;28;20036;-86
2021/06/07 02:01:54;;;;;;;1.55;1.20;;;14.00;69.50;;;;;;5015001;28;20038;-87
2021/06/07 02:04:21;;;;;;;4.65;1.48;;;14.00;68.70;;;;;;5025678;28;20105;-87
2021/06/07 02:06:47;;;;;;;2.08;1.40;;;14.00;68.70;;;;;;5018848;28;20471;-87
2021/06/07 02:09:13;;;;;;;1.70;1.30;;;14.00;68.80;;;;;;5029411;28;20112;-86
2021/06/07 02:11:39;;;;;;;2.58;1.60;;;14.00;68.70;;;;;;5017322;28;20072;-86
2021/06/07 02:14:05;;;;;;;1.83;1.42;;;13.90;68.60;;;;;;5024628;28;20021;-87
2021/06/07 02:16:34;;;;;;;2.83;1.38;;;13.90;68.70;;;;;;5023564;28;20034;-88
2021/06/07 02:19:01;;;;;;;2.45;1.40;;;13.90;68.70;;;;;;5017252;28;20096;-87
2021/06/07 02:21:27;;;;;;;1.40;1.30;;;13.80;68.80;;;;;;5023989;28;20491;-86
2021/06/07 02:23:54;;;;;;;1.58;1.35;;;13.80;68.80;;;;;;5025950;28;20495;-87
2021/06/07 02:26:22;;;;;;;2.78;1.50;;;13.80;68.90;;;;;;5021409;28;20076;-87
2021/06/07 02:28:53;;;;;;;2.45;1.38;;;13.80;68.90;;;;;;5011240;28;20045;-86
2021/06/07 02:31:20;;;;;;;3.25;1.40;;;13.70;69.00;;;;;;5014431;28;20041;-86
2021/06/07 02:33:49;;;;;;;3.13;1.60;;;13.70;69.10;;;;;;5030176;28;20163;-87
2021/06/07 02:36:15;;;;;;;1.50;1.23;;;13.60;69.00;;;;;;5025580;28;20040;-88
2021/06/07 02:38:41;;;;;;;3.13;1.52;;;13.60;69.10;;;;;;5026813;28;20017;-88
2021/06/07 02:41:06;;;;;;;1.67;1.10;;;13.60;69.10;;;;;;5029147;28;20021;-86
2021/06/07 02:43:32;;;;;;;1.40;1.00;;;13.60;69.10;;;;;;5028439;28;20028;-86
2021/06/07 02:45:57;;;;;;;1.70;1.27;;;13.60;69.10;;;;;;5023975;28;20021;-87
2021/06/07 02:48:23;;;;;;;2.33;1.48;;;13.50;69.10;;;;;;5012122;28;20025;-87
2021/06/07 02:50:49;;;;;;;1.48;1.20;;;13.50;69.30;;;;;;5015910;28;20038;-87
2021/06/07 02:53:16;;;;;;;1.50;1.40;;;13.50;69.30;;;;;;5014079;28;20159;-87
2021/06/07 02:55:49;;;;;;;2.45;1.35;;;13.40;69.30;;;;;;5018324;28;20026;-85
2021/06/07 02:58:15;;;;;;;2.13;1.70;;;13.40;69.40;;;;;;5011959;28;20116;-86
2021/06/07 03:00:51;;;;;;;1.40;1.30;;;13.40;69.50;;;;;;5016245;28;20076;-87
2021/06/07 03:03:17;;;;;;;3.40;1.52;;;13.30;69.60;;;;;;5014689;28;20473;-89
2021/06/07 03:05:44;;;;;;;1.60;1.40;;;13.30;69.70;;;;;;5021630;28;20397;-87
2021/06/07 03:08:13;;;;;;;2.10;1.42;;;13.30;69.70;;;;;;5014780;28;20025;-88
2021/06/07 03:10:41;;;;;;;1.83;1.50;;;13.30;69.70;;;;;;5018616;28;20076;-88
2021/06/07 03:13:07;;;;;;;2.88;1.88;;;13.30;69.80;;;;;;5031080;28;20021;-89
2021/06/07 03:15:33;;;;;;;2.88;1.50;;;13.30;69.90;;;;;;5031828;28;20033;-86
2021/06/07 03:17:59;;;;;;;1.63;1.52;;;13.30;70.00;;;;;;5019836;28;20037;-89
2021/06/07 03:20:28;;;;;;;1.83;1.38;;;13.20;70.10;;;;;;5030391;28;20048;-89
2021/06/07 03:22:59;;;;;;;3.60;1.90;;;13.20;70.20;;;;;;5029201;28;20021;-89
2021/06/07 03:25:25;;;;;;;1.83;1.65;;;13.20;70.30;;;;;;5027159;28;20033;-88
2021/06/07 03:27:51;;;;;;;1.92;1.70;;;13.30;70.40;;;;;;5030797;28;20036;-89
2021/06/07 03:30:17;;;;;;;2.67;1.80;;;13.30;70.50;;;;;;5021399;28;20064;-88
2021/06/07 03:32:43;;;;;;;1.60;1.50;;;13.20;70.50;;;;;;5031118;28;20484;-87
2021/06/07 03:35:11;;;;;;;2.80;1.50;;;13.20;70.40;;;;;;5034631;28;20021;-90
2021/06/07 03:37:38;;;;;;;1.88;1.60;;;13.20;70.50;;;;;;5025788;28;20033;-88
2021/06/07 03:40:07;;;;;;;1.88;1.50;;;13.20;70.60;;;;;;5034134;28;20029;-88
2021/06/07 03:42:33;;;;;;;3.78;2.10;;;13.20;70.60;;;;;;5024564;28;20535;-88
2021/06/07 03:44:58;;;;;;;2.65;2.10;;;13.20;70.60;;;;;;5032400;28;20160;-89
2021/06/07 03:47:24;;;;;;;2.50;1.85;;;13.20;70.70;;;;;;5027456;28;20025;-89
2021/06/07 03:49:49;;;;;;;2.58;1.77;;;13.20;70.70;;;;;;5020896;28;20369;-90
2021/06/07 03:52:15;;;;;;;2.10;1.80;;;13.20;70.80;;;;;;5027624;28;20111;-89
2021/06/07 03:54:40;;;;;;;2.80;1.95;;;13.20;70.80;;;;;;5028941;28;20057;-89
2021/06/07 03:57:07;;;;;;;1.92;1.70;;;13.20;70.80;;;;;;5017745;28;20024;-88
2021/06/07 03:59:32;;;;;;;3.33;2.15;;;13.30;70.90;;;;;;5019966;28;20108;-86
2021/06/07 04:02:02;;;;;;;2.65;1.73;;;13.30;71.00;;;;;;5015145;28;20109;-87
2021/06/07 04:04:28;;;;;;;2.78;1.77;;;13.30;70.90;;;;;;5013745;28;20525;-86
2021/06/07 04:06:53;;;;;;;4.07;2.00;;;13.30;70.80;;;;;;5018781;28;20451;-85
2021/06/07 04:09:19;;;;;;;2.45;2.00;;;13.40;70.80;;;;;;5028099;28;20116;-85
2021/06/07 04:11:44;;;;;;;4.10;2.00;;;13.40;70.80;;;;;;5020176;28;20111;-86
2021/06/07 04:14:10;;;;;;;2.30;1.80;;;13.40;70.80;;;;;;5030586;28;20025;-86
2021/06/07 04:16:36;;;;;;;2.13;1.90;;;13.40;70.80;;;;;;5024621;28;20036;-85
2021/06/07 04:19:01;;;;;;;3.22;2.00;;;13.40;70.80;;;;;;5021520;28;20566;-85
2021/06/07 04:21:27;;;;;;;2.75;2.00;;;13.40;70.80;;;;;;5031742;28;20032;-86
2021/06/07 04:23:52;;;;;;;2.80;1.83;;;13.50;70.80;;;;;;5030057;28;20057;-86
2021/06/07 04:26:18;;;;;;;2.30;1.90;;;13.50;70.80;;;;;;5023790;28;20029;-85
2021/06/07 04:28:43;;;;;;;2.33;1.80;;;13.50;70.80;;;;;;5021810;28;20026;-86
2021/06/07 04:31:10;;;;;;;3.28;1.98;;;13.50;70.80;;;;;;5020686;28;20034;-87
2021/06/07 04:33:36;;;;;;;2.28;1.67;;;13.60;70.80;;;;;;5015575;28;20026;-86
2021/06/07 04:36:02;;;;;;;3.25;1.95;;;13.60;70.70;;;;;;5026148;28;20112;-86
2021/06/07 04:38:28;;;;;;;2.03;1.83;;;13.60;70.60;;;;;;5029849;28;20109;-86
2021/06/07 04:40:53;;;;;;;2.92;1.40;;;13.60;70.60;;;;;;5024799;28;20037;-87
2021/06/07 04:43:19;;;;;;;1.60;1.50;;;13.60;70.60;;;;;;5024678;28;20444;-89
2021/06/07 04:45:46;;;;;;;2.38;1.70;;;13.60;70.50;;;;;;5028915;28;20018;-90
2021/06/07 04:48:12;;;;;;;2.45;1.80;;;13.70;70.50;;;;;;5020779;28;20030;-88
2021/06/07 04:50:39;;;;;;;2.10;1.90;;;13.70;70.50;;;;;;5018695;28;20495;-89
2021/06/07 04:53:07;;;;;;;1.63;1.52;;;13.80;70.60;;;;;;5023451;28;20018;-88
2021/06/07 04:55:45;;;;;;;2.05;1.60;;;13.90;70.40;;;;;;5030441;28;20033;-87
2021/06/07 04:58:20;;;;;;;1.70;1.60;;;14.50;69.40;;;;;;5022065;28;20022;-87
2021/06/07 05:01:05;;;;;;;1.58;1.48;;;15.30;67.50;;;;;;5031439;28;20044;-90
2021/06/07 05:03:31;;;;;;;1.60;1.40;;;15.90;65.70;;;;;;5020700;28;20072;-87
2021/06/07 05:05:58;;;;;;;2.33;1.85;;;16.50;64.00;;;;;;5026106;28;20033;-88
2021/06/07 05:08:25;;;;;;;2.40;1.50;;;16.80;62.70;;;;;;5023033;28;20022;-85
2021/06/07 05:10:51;;;;;;;1.40;1.30;;;17.20;61.70;;;;;;5030882;28;20515;-86
2021/06/07 05:13:17;;;;;;;2.53;1.45;;;17.50;60.70;;;;;;5022598;28;20014;-88
2021/06/07 05:15:43;;;;;;;1.52;1.40;;;17.80;59.90;;;;;;5025007;28;20484;-87
2021/06/07 05:18:09;;;;;;;1.75;1.27;;;18.10;59.20;;;;;;5031144;28;20105;-87
2021/06/07 05:20:35;;;;;;;1.42;1.30;;;18.40;58.70;;;;;;5031494;28;20037;-86
2021/06/07 05:23:02;;;;;;;1.48;1.27;;;18.70;58.10;;;;;;5028807;28;20085;-87
2021/06/07 05:25:29;;;;;;;1.70;1.20;;;18.90;57.50;;;;;;5012450;28;20477;-87
2021/06/07 05:27:56;;;;;;;1.80;1.13;;;19.10;57.20;;;;;;5011938;28;20038;-86
2021/06/07 05:30:25;;;;;;;1.45;1.13;;;19.30;56.80;;;;;;5021669;28;20125;-87
2021/06/07 05:32:51;;;;;;;2.00;1.10;;;19.60;56.30;;;;;;5038138;28;20017;-87
2021/06/07 05:35:18;;;;;;;0.80;0.80;;;19.70;55.90;;;;;;5035349;28;20425;-87
2021/06/07 05:37:44;;;;;;;0.93;0.88;;;19.80;55.80;;;;;;5028664;28;20032;-88
2021/06/07 05:40:12;;;;;;;2.38;1.00;;;19.90;55.60;;;;;;5029255;28;20021;-89
2021/06/07 05:42:38;;;;;;;1.33;0.80;;;19.90;55.40;;;;;;5029733;28;20092;-87
2021/06/07 05:45:06;;;;;;;1.10;0.90;;;20.00;55.50;;;;;;5030106;28;20448;-86
2021/06/07 05:47:32;;;;;;;2.58;0.95;;;20.10;55.40;;;;;;5030391;28;20128;-87
2021/06/07 05:49:58;;;;;;;1.58;1.00;;;20.10;55.30;;;;;;5038476;28;20556;-87
2021/06/07 05:52:23;;;;;;;1.02;0.80;;;20.10;55.20;;;;;;5039902;28;20484;-87
2021/06/07 05:54:49;;;;;;;1.05;0.75;;;20.00;55.20;;;;;;5036503;28;20021;-86
2021/06/07 05:57:15;;;;;;;0.75;0.68;;;20.00;55.20;;;;;;5029656;28;20168;-87
2021/06/07 05:59:43;;;;;;;0.95;0.70;;;19.90;55.00;;;;;;5026931;28;20025;-85
2021/06/07 06:02:09;;;;;;;1.40;0.70;;;19.90;54.90;;;;;;5028069;28;20022;-85
2021/06/07 06:04:35;;;;;;;1.02;0.73;;;19.70;54.30;;;;;;5028619;28;20033;-84
2021/06/07 06:07:02;;;;;;;1.13;0.77;;;19.40;54.00;;;;;;5028100;28;20491;-84
2021/06/07 06:09:28;;;;;;;1.50;0.90;;;19.20;53.30;;;;;;5028437;28;20491;-84
2021/06/07 06:11:54;;;;;;;1.02;0.60;;;19.20;54.80;;;;;;5028789;28;20033;-85
2021/06/07 06:14:20;;;;;;;0.77;0.68;;;19.20;54.30;;;;;;5027882;28;20548;-85
2021/06/07 06:16:45;;;;;;;1.45;0.60;;;19.20;54.50;;;;;;5029671;28;20083;-85
2021/06/07 06:19:12;;;;;;;1.23;0.70;;;19.20;54.20;;;;;;5027589;28;20033;-86
2021/06/07 06:21:39;;;;;;;1.00;0.70;;;19.20;54.30;;;;;;5023039;28;20022;-85
2021/06/07 06:24:09;;;;;;;0.80;0.55;;;19.30;54.30;;;;;;5026985;28;20026;-86
2021/06/07 06:26:36;;;;;;;0.85;0.60;;;19.40;54.00;;;;;;5029064;28;20496;-86
2021/06/07 06:29:02;;;;;;;0.80;0.60;;;19.40;53.30;;;;;;5024829;28;20032;-86
2021/06/07 06:31:27;;;;;;;2.05;0.63;;;19.50;53.20;;;;;;5027538;28;20033;-86
2021/06/07 06:33:53;;;;;;;1.85;0.80;;;19.60;53.10;;;;;;5026562;28;20799;-85
2021/06/07 06:36:19;;;;;;;1.55;0.60;;;19.60;52.30;;;;;;5018683;28;20052;-83
2021/06/07 06:38:45;;;;;;;1.48;0.60;;;19.60;52.00;;;;;;5020391;28;20574;-83
2021/06/07 06:41:11;;;;;;;1.50;0.90;;;19.70;51.90;;;;;;5016008;28;20036;-94
2021/06/07 06:43:37;;;;;;;1.17;0.55;;;19.60;50.90;;;;;;5026202;28;20500;-85
2021/06/07 06:46:03;;;;;;;1.23;0.70;;;19.70;51.30;;;;;;5021283;28;20054;-86
2021/06/07 06:48:31;;;;;;;0.95;0.60;;;19.80;51.10;;;;;;5022376;28;20030;-87
2021/06/07 06:50:57;;;;;;;0.90;0.65;;;19.80;50.50;;;;;;5021132;28;20049;-87
2021/06/07 06:53:24;;;;;;;1.08;0.90;;;19.90;50.70;;;;;;5015219;28;20489;-87
2021/06/07 06:55:50;;;;;;;3.20;0.70;;;20.00;50.30;;;;;;5023334;28;20036;-88
2021/06/07 06:58:16;;;;;;;1.20;0.50;;;20.10;50.20;;;;;;5022887;28;20160;-88
2021/06/07 07:00:42;;;;;;;1.83;0.60;;;20.20;49.90;;;;;;5020904;28;20503;-85
2021/06/07 07:03:11;;;;;;;1.60;0.70;;;20.30;49.60;;;;;;5017896;28;20033;-86
2021/06/07 07:05:37;;;;;;;1.13;0.65;;;20.30;49.10;;;;;;5029047;28;20040;-88
2021/06/07 07:08:04;;;;;;;1.17;0.70;;;20.40;48.80;;;;;;5012725;28;20026;-91
2021/06/07 07:10:31;;;;;;;0.70;0.60;;;20.50;48.60;;;;;;5028015;28;20439;-90
2021/06/07 07:12:57;;;;;;;2.45;0.68;;;20.50;48.10;;;;;;5030572;28;20033;-90
2021/06/07 07:15:23;;;;;;;1.48;0.60;;;20.60;48.60;;;;;;5021423;28;20033;-89
2021/06/07 07:17:48;;;;;;;1.10;0.73;;;20.70;48.00;;;;;;5017608;28;20036;-89
2021/06/07 07:20:15;;;;;;;0.70;0.52;;;20.70;47.80;;;;;;5016838;28;20046;-89
2021/06/07 07:22:41;;;;;;;1.85;0.60;;;20.80;47.80;;;;;;5019561;28;20025;-93
2021/06/07 07:25:08;;;;;;;1.20;0.60;;;21.00;47.40;;;;;;5011302;28;20554;-89
2021/06/07 07:27:36;;;;;;;0.63;0.52;;;21.00;47.30;;;;;;5012525;28;20477;-92
2021/06/07 07:30:08;;;;;;;0.73;0.55;;;21.10;47.10;;;;;;5021035;28;20480;-93
2021/06/07 07:32:34;;;;;;;0.73;0.52;;;21.20;47.50;;;;;;5022309;28;20034;-91
2021/06/07 07:34:59;;;;;;;1.08;0.82;;;21.30;46.50;;;;;;5014492;28;20018;-90
2021/06/07 07:37:25;;;;;;;1.30;0.55;;;21.30;46.10;;;;;;5010963;28;20045;-92
2021/06/07 07:39:51;;;;;;;1.33;0.70;;;21.50;46.10;;;;;;5017965;28;20441;-89
2021/06/07 07:42:17;;;;;;;1.15;0.63;;;21.50;46.10;;;;;;5030520;28;20014;-90
2021/06/07 07:44:44;;;;;;;2.03;0.75;;;21.50;45.90;;;;;;5028870;28;20040;-88
2021/06/07 07:47:09;;;;;;;1.45;0.88;;;21.60;44.80;;;;;;5028175;28;20018;-92
2021/06/07 07:49:35;;;;;;;2.03;0.80;;;21.60;44.50;;;;;;5028390;28;20048;-89
2021/06/07 07:52:02;;;;;;;0.73;0.70;;;21.50;44.60;;;;;;5029206;28;20033;-87
2021/06/07 07:54:27;;;;;;;0.90;0.77;;;21.50;44.50;;;;;;5012631;28;20018;-87
2021/06/07 07:56:53;;;;;;;1.00;0.57;;;21.40;44.30;;;;;;5023260;28;20025;-94
2021/06/07 07:59:19;;;;;;;0.88;0.60;;;21.40;44.50;;;;;;5033543;28;20595;-92
2021/06/07 08:01:45;;;;;;;1.20;0.68;;;21.60;45.00;;;;;;5029048;28;20295;-92
2021/06/07 08:04:11;;;;;;;1.05;0.80;;;21.60;44.60;;;;;;5034742;28;20108;-90
2021/06/07 08:06:38;;;;;;;1.27;0.60;;;21.60;44.80;;;;;;5029867;28;20060;-91
2021/06/07 08:09:04;;;;;;;1.42;0.80;;;21.70;44.90;;;;;;5040000;28;20025;-93
2021/06/07 08:11:32;;;;;;;1.08;0.70;;;21.80;44.90;;;;;;5028780;28;20041;-93
2021/06/07 08:13:58;;;;;;;0.93;0.70;;;21.70;44.60;;;;;;5031113;28;20087;-92
2021/06/07 08:16:23;;;;;;;2.35;0.90;;;21.80;45.10;;;;;;5030871;28;20476;-92
2021/06/07 08:18:49;;;;;;;2.13;0.60;;;22.00;45.20;;;;;;5028998;28;20021;-91
2021/06/07 08:21:14;;;;;;;0.65;0.60;;;22.00;45.10;;;;;;5029434;28;20033;-93
2021/06/07 08:23:40;;;;;;;2.88;0.80;;;22.10;45.00;;;;;;5041315;28;20021;-91
2021/06/07 08:26:06;;;;;;;0.70;0.55;;;22.20;45.30;;;;;;5043396;28;20021;-91
2021/06/07 08:28:32;;;;;;;1.23;0.90;;;22.30;45.00;;;;;;5037319;28;20028;-92
2021/06/07 08:30:58;;;;;;;4.15;1.00;;;22.30;44.30;;;;;;5040066;28;20029;-90
2021/06/07 08:33:23;;;;;;;4.30;1.10;;;22.20;44.20;;;;;;5022365;28;20530;-91
2021/06/07 08:35:49;;;;;;;1.92;0.80;;;22.20;44.20;;;;;;5041441;28;20032;-91
2021/06/07 08:38:15;;;;;;;2.45;0.90;;;22.20;44.00;;;;;;5035913;28;20038;-91
2021/06/07 08:40:40;;;;;;;0.85;0.70;;;22.30;44.30;;;;;;5043976;28;20025;-92
2021/06/07 08:43:06;;;;;;;0.95;0.63;;;22.30;44.10;;;;;;5038298;28;20025;-91
2021/06/07 08:45:32;;;;;;;0.88;0.60;;;22.30;44.10;;;;;;5039091;28;20076;-93
2021/06/07 08:47:57;;;;;;;2.85;0.80;;;22.30;44.10;;;;;;5030076;28;20048;-92
2021/06/07 08:50:26;;;;;;;2.05;0.85;;;22.40;43.50;;;;;;5033839;28;20040;-91
2021/06/07 08:52:52;;;;;;;1.60;0.60;;;22.40;43.90;;;;;;5029143;28;20057;-92
2021/06/07 08:55:20;;;;;;;1.90;0.73;;;22.40;43.90;;;;;;5032804;28;20057;-92
2021/06/07 08:57:49;;;;;;;0.80;0.70;;;22.50;43.70;;;;;;5033838;28;20105;-92
2021/06/07 09:00:21;;;;;;;1.30;0.60;;;22.50;43.40;;;;;;5025176;28;20037;-92
2021/06/07 09:02:49;;;;;;;1.27;0.80;;;22.60;43.40;;;;;;5025585;28;20021;-91
2021/06/07 09:05:17;;;;;;;1.67;0.85;;;22.70;43.20;;;;;;5027246;28;20080;-91
2021/06/07 09:08:05;;;;;;;1.70;0.70;;;22.50;41.60;;;;;;5030972;28;20029;-91
2021/06/07 09:10:34;;;;;;;1.20;0.75;;;22.30;42.90;;;;;;5026872;28;20025;-90
2021/06/07 09:13:05;;;;;;;1.17;0.80;;;22.30;43.20;;;;;;5035051;28;20479;-90
2021/06/07 09:15:37;;;;;;;3.92;0.90;;;22.50;43.10;;;;;;5029277;28;20117;-90
2021/06/07 09:18:05;;;;;;;1.33;0.80;;;22.60;43.20;;;;;;5022458;28;20021;-92
2021/06/07 09:20:42;;;;;;;3.78;0.80;;;22.70;43.20;;;;;;5025477;28;20027;-91
2021/06/07 09:23:14;;;;;;;2.80;0.57;;;22.80;43.20;;;;;;5031685;28;20049;-90
2021/06/07 09:25:47;;;;;;;2.17;0.90;;;23.00;43.10;;;;;;5026840;28;20602;-91
2021/06/07 09:28:31;;;;;;;2.00;0.73;;;23.00;42.70;;;;;;5024956;28;20473;-91
2021/06/07 09:31:00;;;;;;;0.75;0.60;;;23.10;42.70;;;;;;5026318;28;20060;-90
2021/06/07 09:33:30;;;;;;;0.85;0.70;;;23.10;42.40;;;;;;5022659;28;20476;-90
2021/06/07 09:36:23;;;;;;;1.77;0.75;;;23.10;40.80;;;;;;5023498;28;20048;-91
2021/06/07 09:39:01;;;;;;;1.38;0.80;;;22.90;41.70;;;;;;5029137;28;20021;-93
2021/06/07 09:41:51;;;;;;;1.77;1.02;;;22.90;41.50;;;;;;5019681;28;20025;-91
2021/06/07 09:44:26;;;;;;;1.10;0.70;;;22.50;42.10;;;;;;5030205;28;20065;-90
2021/06/07 09:47:14;;;;;;;1.92;0.80;;;22.50;43.00;;;;;;5031905;28;20116;-90
2021/06/07 09:49:46;;;;;;;1.25;0.70;;;22.70;43.70;;;;;;5022762;28;20025;-90
2021/06/07 09:52:18;;;;;;;0.93;0.90;;;22.90;43.10;;;;;;5020267;28;20072;-91
2021/06/07 09:54:44;;;;;;;1.63;0.93;;;23.20;43.00;;;;;;5012110;28;20112;-87
2021/06/07 09:57:10;;;;;;;1.55;0.77;;;23.30;42.90;;;;;;5023829;28;20112;-91
2021/06/07 09:59:38;;;;;;;1.00;0.70;;;23.40;42.40;;;;;;5029832;28;20101;-90
2021/06/07 10:02:17;;;;;;;0.85;0.70;;;23.50;41.80;;;;;;5029776;28;20026;-88
2021/06/07 10:05:00;;;;;;;1.33;0.90;;;23.60;41.90;;;;;;5021737;28;20159;-94
2021/06/07 10:07:26;;;;;;;0.80;0.80;;;23.70;42.00;;;;;;5024056;28;20026;-90
2021/06/07 10:10:11;;;;;;;1.27;0.68;;;23.90;41.90;;;;;;5023736;28;20029;-90
2021/06/07 10:12:41;;;;;;;0.95;0.65;;;24.00;41.70;;;;;;5020393;28;20083;-89
2021/06/07 10:15:11;;;;;;;2.30;0.90;;;24.10;41.00;;;;;;5024026;28;20109;-89
2021/06/07 10:17:37;;;;;;;0.85;0.60;;;24.10;40.50;;;;;;5016696;28;20052;-91
2021/06/07 10:22:36;;;;;;;1.25;0.70;;;24.10;40.30;;;;;;5022351;28;20068;-92
2021/06/07 10:25:01;;;;;;;1.20;0.80;;;24.20;40.20;;;;;;5014321;28;20503;-91
2021/06/07 10:27:27;;;;;;;2.00;1.10;;;24.10;39.20;;;;;;5011648;28;20030;-92
2021/06/07 10:29:56;;;;;;;1.92;0.90;;;23.90;39.30;;;;;;5018619;28;20048;-90
2021/06/07 10:32:24;;;;;;;1.45;0.70;;;23.80;39.70;;;;;;5018577;28;20461;-90
2021/06/07 10:34:53;;;;;;;2.60;0.80;;;23.90;39.50;;;;;;5012560;28;20072;-92
2021/06/07 10:37:20;;;;;;;3.10;1.10;;;23.90;39.40;;;;;;5018294;28;20209;-92
2021/06/07 10:39:46;;;;;;;1.55;0.80;;;23.80;39.50;;;;;;5029184;28;20034;-92
2021/06/07 10:42:21;;;;;;;1.48;0.90;;;23.80;40.20;;;;;;5036344;28;20439;-92
2021/06/07 10:44:49;;;;;;;3.30;1.30;;;23.80;40.00;;;;;;5031295;28;20093;-92
2021/06/07 10:47:23;;;;;;;1.17;0.70;;;23.80;39.20;;;;;;5027692;28;20018;-90
2021/06/07 10:50:03;;;;;;;1.63;0.90;;;23.60;40.10;;;;;;5018883;28;20156;-88
2021/06/07 10:52:43;;;;;;;1.10;0.70;;;23.70;40.20;;;;;;5026351;28;20099;-90
2021/06/07 10:55:26;;;;;;;1.73;1.05;;;23.80;40.20;;;;;;5020435;28;20018;-91
2021/06/07 10:58:25;;;;;;;1.75;0.90;;;24.00;39.70;;;;;;5018998;28;20523;-88
2021/06/07 11:00:57;;;;;;;1.83;1.15;;;24.10;40.10;;;;;;4983275;28;20480;-87
2021/06/07 11:03:25;;;;;;;1.27;0.70;;;24.30;40.10;;;;;;5026775;28;20029;-87
2021/06/07 11:05:55;;;;;;;2.22;1.05;;;24.30;39.80;;;;;;5023380;28;20021;-88
2021/06/07 11:08:31;;;;;;;1.92;1.08;;;24.10;38.80;;;;;;5020756;28;20040;-92
2021/06/07 11:11:05;;;;;;;1.67;1.08;;;24.10;39.10;;;;;;5016979;28;20499;-89
2021/06/07 11:13:45;;;;;;;2.72;0.80;;;24.20;39.20;;;;;;5021521;28;20100;-90
2021/06/07 11:16:34;;;;;;;2.45;0.90;;;24.30;39.00;;;;;;5017713;28;20404;-87
2021/06/07 11:19:08;;;;;;;0.93;0.77;;;24.30;37.80;;;;;;5019146;28;20555;-89
2021/06/07 11:21:37;;;;;;;1.02;0.80;;;24.40;38.10;;;;;;5023040;28;20025;-89
2021/06/07 11:24:35;;;;;;;1.50;0.77;;;24.50;38.00;;;;;;5017534;28;20030;-89
2021/06/07 11:27:04;;;;;;;1.27;0.82;;;24.50;38.00;;;;;;5020021;28;20095;-88
2021/06/07 11:29:31;;;;;;;0.60;0.60;;;24.60;38.10;;;;;;5028879;28;20476;-89
2021/06/07 11:32:17;;;;;;;1.15;0.70;;;24.50;37.70;;;;;;5024805;28;20072;-89
2021/06/07 11:34:48;;;;;;;0.93;0.70;;;24.80;37.80;;;;;;5029799;28;20723;-89
2021/06/07 11:37:31;;;;;;;1.03;0.90;;;25.00;37.60;;;;;;5031036;28;20052;-89
2021/06/07 11:39:57;;;;;;;1.08;0.90;;;25.20;37.80;;;;;;5023930;28;20120;-89
2021/06/07 11:42:25;;;;;;;0.73;0.70;;;25.40;38.40;;;;;;5022284;28;20101;-88
2021/06/07 11:45:08;;;;;;;1.30;0.80;;;25.50;38.20;;;;;;5031886;28;20044;-87
2021/06/07 11:47:38;;;;;;;0.85;0.70;;;25.60;38.20;;;;;;5022059;28;20425;-89
2021/06/07 11:50:08;;;;;;;2.10;0.90;;;25.90;38.00;;;;;;5022307;28;20033;-88
2021/06/07 11:52:36;;;;;;;1.27;0.73;;;25.90;37.50;;;;;;5024168;28;20412;-89
2021/06/07 11:55:16;;;;;;;1.67;0.80;;;25.90;37.30;;;;;;5031936;28;20511;-88
2021/06/07 11:57:43;;;;;;;1.23;0.75;;;26.10;37.40;;;;;;5020750;28;20087;-90
2021/06/07 12:00:21;;;;;;;1.33;0.70;;;26.10;37.40;;;;;;5024002;28;20037;-89
2021/06/07 12:02:47;;;;;;;1.67;1.20;;;25.90;37.10;;;;;;5025877;28;20017;-86
2021/06/07 12:05:15;;;;;;;1.77;0.90;;;25.80;36.70;;;;;;5026950;28;20067;-90
2021/06/07 12:07:45;;;;;;;1.20;0.80;;;25.60;37.90;;;;;;5020524;28;20029;-88
2021/06/07 12:10:18;;;;;;;1.30;0.70;;;25.80;37.60;;;;;;5022868;28;20388;-87
2021/06/07 12:12:44;;;;;;;1.45;1.10;;;25.90;37.20;;;;;;5024117;28;20025;-92
2021/06/07 12:15:13;;;;;;;1.35;0.98;;;25.70;36.50;;;;;;5024930;28;20041;-89
2021/06/07 12:17:50;;;;;;;0.98;0.82;;;25.50;37.40;;;;;;5024207;28;20159;-90
2021/06/07 12:20:18;;;;;;;1.27;0.70;;;25.60;37.70;;;;;;5027534;28;20511;-90
2021/06/07 12:22:48;;;;;;;1.83;1.10;;;25.70;37.70;;;;;;5026161;28;20103;-86
2021/06/07 12:30:41;;;;;;;1.08;0.98;;;25.70;36.40;;;;;;5022611;28;20107;-86
2021/06/07 12:33:07;;;;;;;1.65;1.05;;;25.90;36.90;;;;;;5027310;28;20037;-85
2021/06/07 12:35:36;;;;;;;1.52;1.00;;;26.10;36.70;;;;;;5028618;28;20033;-88
2021/06/07 12:38:07;;;;;;;1.10;0.90;;;26.10;36.60;;;;;;5019062;28;20048;-87
2021/06/07 12:40:40;;;;;;;1.67;0.88;;;26.30;36.40;;;;;;5023345;28;20030;-87
2021/06/07 12:43:05;;;;;;;2.67;0.90;;;26.40;35.60;;;;;;5026548;28;20037;-87
2021/06/07 12:45:35;;;;;;;1.17;0.75;;;26.30;35.80;;;;;;5029312;28;20025;-87
2021/06/07 12:48:21;;;;;;;2.17;0.90;;;26.60;35.90;;;;;;5021252;28;20029;-88
2021/06/07 12:51:03;;;;;;;0.98;0.70;;;26.70;35.20;;;;;;5023897;28;20026;-87
2021/06/07 12:53:33;;;;;;;0.93;0.50;;;26.70;34.70;;;;;;5026167;28;20025;-86
2021/06/07 12:56:03;;;;;;;1.23;0.68;;;26.80;34.20;;;;;;5030488;28;20013;-90
2021/06/07 12:58:30;;;;;;;2.38;1.00;;;26.90;33.50;;;;;;5014902;28;20126;-88
2021/06/07 13:01:01;;;;;;;1.60;0.80;;;26.80;32.50;;;;;;5026958;28;20667;-88
2021/06/07 13:03:34;;;;;;;1.00;0.80;;;26.70;33.30;;;;;;5024777;28;20025;-87